Time;durP1;ratioP1;P1;durP2;ratioP2;P2;SDS_P1;SDS_P2;PMS_P1;PMS_P2;Temp;Humidity;BMP_temperature;BMP_pressure;BME280_temperature;BME280_humidity;BME280_pressure;Samples;Min_cycle;Max_cycle;Signal;HPM_P1;HPM_P2
2021/12/31 00:02:16;;;;;;;26.40;3.88;;;22.10;57.90;;;;;;5027065;28;20124;-78
2021/12/31 00:04:42;;;;;;;17.00;2.97;;;22.10;58.20;;;;;;5026949;28;20029;-79
2021/12/31 00:07:09;;;;;;;19.05;2.45;;;22.00;57.90;;;;;;5027146;28;20117;-75
2021/12/31 00:09:37;;;;;;;12.82;2.90;;;22.00;57.80;;;;;;5029507;28;20459;-81
2021/12/31 00:12:05;;;;;;;9.77;2.42;;;22.00;57.70;;;;;;5030861;28;20484;-79
2021/12/31 00:14:32;;;;;;;8.10;2.55;;;22.00;57.70;;;;;;5030468;28;20091;-80
2021/12/31 00:16:58;;;;;;;6.00;2.22;;;22.00;57.70;;;;;;5026604;28;20017;-80
2021/12/31 00:19:29;;;;;;;11.32;2.97;;;22.00;57.80;;;;;;5027045;28;20014;-79
2021/12/31 00:21:56;;;;;;;8.85;2.65;;;22.00;58.00;;;;;;5028131;28;20041;-79
2021/12/31 00:24:25;;;;;;;7.50;3.10;;;22.00;58.10;;;;;;5025462;28;20045;-80
2021/12/31 00:26:52;;;;;;;6.97;2.88;;;21.90;58.30;;;;;;5024411;28;20022;-78
2021/12/31 00:29:18;;;;;;;6.70;2.20;;;21.90;58.50;;;;;;5030480;28;20491;-78
2021/12/31 00:31:44;;;;;;;7.75;2.33;;;21.90;58.70;;;;;;5026654;28;21050;-81
2021/12/31 00:34:11;;;;;;;8.65;2.10;;;21.80;58.70;;;;;;5027030;28;20025;-79
2021/12/31 00:36:43;;;;;;;12.60;3.20;;;21.90;58.90;;;;;;5026184;28;20025;-80
2021/12/31 00:39:09;;;;;;;12.90;2.55;;;21.80;58.90;;;;;;5020066;28;20460;-79
2021/12/31 00:41:36;;;;;;;9.15;2.25;;;21.80;58.90;;;;;;5026313;28;20128;-79
2021/12/31 00:44:02;;;;;;;6.60;1.65;;;21.80;58.80;;;;;;5030342;28;20025;-79
2021/12/31 00:46:32;;;;;;;9.35;2.78;;;21.80;58.90;;;;;;5029749;28;20030;-74
2021/12/31 00:49:02;;;;;;;12.55;2.67;;;21.80;58.90;;;;;;5020178;28;20049;-81
2021/12/31 00:51:28;;;;;;;15.23;2.85;;;21.80;58.90;;;;;;5026289;28;20034;-79
2021/12/31 00:53:55;;;;;;;10.90;2.40;;;21.70;58.90;;;;;;5028908;28;20544;-78
2021/12/31 00:56:21;;;;;;;7.57;2.63;;;21.70;58.90;;;;;;5022293;28;20124;-77
2021/12/31 00:58:48;;;;;;;6.93;2.80;;;21.70;58.90;;;;;;5026808;28;20025;-78
2021/12/31 01:01:20;;;;;;;9.65;3.10;;;21.70;59.00;;;;;;5022154;28;20419;-76
2021/12/31 01:03:48;;;;;;;11.00;2.63;;;21.70;59.10;;;;;;5028656;28;20033;-80
2021/12/31 01:06:15;;;;;;;9.50;2.55;;;21.70;59.30;;;;;;5029805;28;20049;-82
2021/12/31 01:08:42;;;;;;;12.40;2.70;;;21.70;59.50;;;;;;5029692;28;20032;-80
2021/12/31 01:11:10;;;;;;;16.02;3.58;;;21.60;59.70;;;;;;5024059;28;20026;-80
2021/12/31 01:13:50;;;;;;;7.63;2.80;;;21.70;59.90;;;;;;5024987;28;20108;-72
2021/12/31 01:16:19;;;;;;;11.32;3.30;;;21.70;60.00;;;;;;5025126;28;20022;-79
2021/12/31 01:21:22;;;;;;;22.70;3.58;;;21.60;60.20;;;;;;5023161;28;20053;-80
2021/12/31 01:23:50;;;;;;;19.75;3.83;;;21.60;60.60;;;;;;5024834;28;20037;-79
2021/12/31 01:26:17;;;;;;;32.58;4.07;;;21.60;60.70;;;;;;5029358;28;20439;-78
2021/12/31 01:28:44;;;;;;;11.30;3.08;;;21.60;60.80;;;;;;5023956;28;20393;-77
2021/12/31 01:31:11;;;;;;;10.95;2.22;;;21.50;60.80;;;;;;5027875;28;20059;-75
2021/12/31 01:33:37;;;;;;;10.85;3.33;;;21.50;60.80;;;;;;5026042;28;20104;-78
2021/12/31 01:36:05;;;;;;;18.13;3.70;;;21.50;60.70;;;;;;5028497;28;20018;-79
2021/12/31 01:38:34;;;;;;;12.52;3.13;;;21.50;60.60;;;;;;5028184;28;20225;-78
2021/12/31 01:41:01;;;;;;;9.05;2.45;;;21.50;60.50;;;;;;5023874;28;20018;-76
2021/12/31 01:43:27;;;;;;;16.30;2.53;;;21.50;60.40;;;;;;5024298;28;20500;-79
2021/12/31 01:46:00;;;;;;;9.10;2.20;;;21.50;60.40;;;;;;5021839;28;20626;-80
2021/12/31 01:48:48;;;;;;;15.18;3.88;;;21.50;60.30;;;;;;5026787;28;20784;-79
2021/12/31 01:51:15;;;;;;;13.73;2.78;;;21.50;60.30;;;;;;5027647;28;20021;-80
2021/12/31 01:53:41;;;;;;;11.00;2.30;;;21.40;60.30;;;;;;5027194;28;20389;-78
2021/12/31 01:56:08;;;;;;;11.07;2.47;;;21.40;60.30;;;;;;5026188;28;20018;-81
2021/12/31 01:58:35;;;;;;;9.38;2.10;;;21.40;60.30;;;;;;5022134;28;20075;-81
2021/12/31 02:01:05;;;;;;;12.00;2.92;;;21.40;60.40;;;;;;5026458;28;20033;-82
2021/12/31 02:03:36;;;;;;;14.02;3.47;;;21.40;60.70;;;;;;5023829;28;20099;-75
2021/12/31 02:06:04;;;;;;;9.60;2.38;;;21.40;60.70;;;;;;5026331;28;20026;-81
2021/12/31 02:08:31;;;;;;;10.38;2.50;;;21.40;60.80;;;;;;5024185;28;20097;-82
2021/12/31 02:10:58;;;;;;;5.32;2.10;;;21.40;60.80;;;;;;5026090;28;20105;-83
2021/12/31 02:13:25;;;;;;;7.43;2.75;;;21.40;60.80;;;;;;5026439;28;20033;-80
2021/12/31 02:15:53;;;;;;;11.18;2.50;;;21.40;60.90;;;;;;5025411;28;20078;-81
2021/12/31 02:18:19;;;;;;;9.93;2.88;;;21.30;60.90;;;;;;5024152;28;20020;-78
2021/12/31 02:20:48;;;;;;;38.35;5.18;;;21.30;61.00;;;;;;5028297;28;20058;-78
2021/12/31 02:23:15;;;;;;;19.20;3.95;;;21.30;61.30;;;;;;5029902;28;20041;-78
2021/12/31 02:25:42;;;;;;;19.85;5.57;;;21.30;61.20;;;;;;5021115;28;20020;-79
2021/12/31 02:28:09;;;;;;;28.05;16.63;;;21.30;61.10;;;;;;5025727;28;20072;-77
2021/12/31 02:30:35;;;;;;;32.13;15.75;;;21.20;60.60;;;;;;5028236;28;20109;-78
2021/12/31 02:33:03;;;;;;;22.70;11.23;;;21.20;60.60;;;;;;5022796;28;20452;-78
2021/12/31 02:35:31;;;;;;;12.75;6.30;;;21.30;60.70;;;;;;5022717;28;20021;-78
2021/12/31 02:37:58;;;;;;;8.98;3.25;;;21.20;60.60;;;;;;5026593;28;20021;-77
2021/12/31 02:40:27;;;;;;;7.40;2.83;;;21.20;60.60;;;;;;5024149;28;20057;-79
2021/12/31 02:42:56;;;;;;;11.85;2.83;;;21.20;60.60;;;;;;5023788;28;20029;-77
2021/12/31 02:45:34;;;;;;;6.65;2.17;;;21.20;60.80;;;;;;5027929;28;20072;-80
2021/12/31 02:48:02;;;;;;;45.83;5.72;;;21.20;60.70;;;;;;5024850;28;20026;-79
2021/12/31 02:50:33;;;;;;;33.03;4.90;;;21.20;61.30;;;;;;5027030;28;20021;-74
2021/12/31 02:53:12;;;;;;;18.13;3.53;;;21.10;61.30;;;;;;5031309;28;20033;-77
2021/12/31 02:55:41;;;;;;;9.55;2.28;;;21.10;61.20;;;;;;5023048;28;20447;-78
2021/12/31 02:58:09;;;;;;;49.17;6.28;;;21.10;61.10;;;;;;5023409;28;20025;-77
2021/12/31 03:00:39;;;;;;;53.95;8.35;;;21.10;61.20;;;;;;5019963;28;20108;-78
2021/12/31 03:03:09;;;;;;;24.08;3.38;;;21.00;61.40;;;;;;5025160;28;20515;-77
2021/12/31 03:05:36;;;;;;;24.02;3.83;;;21.00;61.30;;;;;;5024134;28;20095;-71
2021/12/31 03:08:08;;;;;;;10.77;2.63;;;21.00;61.30;;;;;;5027971;28;20063;-78
2021/12/31 03:10:35;;;;;;;13.82;3.75;;;20.90;61.20;;;;;;5029530;28;20045;-79
2021/12/31 03:13:03;;;;;;;12.77;2.25;;;20.90;61.30;;;;;;5026079;28;20018;-75
2021/12/31 03:15:29;;;;;;;16.58;2.55;;;20.90;61.20;;;;;;5029430;28;20028;-80
2021/12/31 03:18:00;;;;;;;16.27;2.72;;;20.90;61.20;;;;;;5018227;28;20064;-79
2021/12/31 03:20:36;;;;;;;10.43;2.85;;;20.90;61.50;;;;;;5024539;28;20388;-73
2021/12/31 03:23:06;;;;;;;107.82;10.50;;;20.90;61.80;;;;;;5028824;28;20539;-75
2021/12/31 03:25:32;;;;;;;59.63;10.27;;;20.90;62.00;;;;;;5027403;28;20022;-73
2021/12/31 03:27:59;;;;;;;45.35;17.65;;;20.80;62.20;;;;;;5024439;28;20021;-78
2021/12/31 03:30:26;;;;;;;44.13;17.50;;;20.80;62.40;;;;;;5020877;28;20034;-74
2021/12/31 03:32:53;;;;;;;23.92;12.05;;;20.80;62.40;;;;;;5020076;28;20029;-77
2021/12/31 03:35:20;;;;;;;14.82;7.20;;;20.80;62.10;;;;;;5019632;28;20057;-77
2021/12/31 03:37:47;;;;;;;11.57;3.63;;;20.80;61.90;;;;;;5028666;28;20033;-70
2021/12/31 03:40:14;;;;;;;29.55;4.10;;;20.80;61.60;;;;;;5023502;28;20026;-78
2021/12/31 03:42:42;;;;;;;21.98;4.85;;;20.80;61.60;;;;;;5028157;28;20033;-79
2021/12/31 03:45:11;;;;;;;22.83;3.95;;;20.80;61.70;;;;;;5032675;28;20033;-75
2021/12/31 03:47:37;;;;;;;23.88;4.28;;;20.80;61.60;;;;;;5037765;28;20033;-76
2021/12/31 03:50:04;;;;;;;20.42;3.80;;;20.70;61.70;;;;;;5024043;28;20105;-79
2021/12/31 03:52:31;;;;;;;8.50;3.58;;;20.70;61.60;;;;;;5019837;28;20598;-79
2021/12/31 03:54:57;;;;;;;15.98;3.25;;;20.70;61.60;;;;;;5024116;28;20071;-77
2021/12/31 03:57:23;;;;;;;13.25;3.75;;;20.70;61.50;;;;;;5023159;28;20468;-77
2021/12/31 03:59:51;;;;;;;9.27;3.42;;;20.70;61.50;;;;;;5024335;28;20504;-74
2021/12/31 04:02:17;;;;;;;21.23;4.85;;;20.70;61.50;;;;;;5023682;28;20038;-77
2021/12/31 04:04:44;;;;;;;14.18;3.40;;;20.70;61.50;;;;;;5023922;28;20033;-76
2021/12/31 04:07:10;;;;;;;10.10;2.67;;;20.70;61.60;;;;;;5023574;28;20367;-77
2021/12/31 04:09:37;;;;;;;42.97;5.70;;;20.60;61.60;;;;;;5025418;28;20033;-77
2021/12/31 04:12:04;;;;;;;88.28;11.60;;;20.60;61.70;;;;;;5030857;28;20108;-76
2021/12/31 04:14:30;;;;;;;85.13;27.13;;;20.60;61.90;;;;;;5025306;28;20496;-77
2021/12/31 04:16:56;;;;;;;78.15;20.08;;;20.60;62.50;;;;;;5024632;28;20032;-76
2021/12/31 04:19:23;;;;;;;35.28;9.40;;;20.60;62.70;;;;;;5026081;28;20108;-73
2021/12/31 04:21:50;;;;;;;21.05;6.55;;;20.60;62.70;;;;;;5026710;28;20021;-78
2021/12/31 04:24:52;;;;;;;15.98;4.10;;;20.60;62.60;;;;;;5026177;28;20160;-76
2021/12/31 04:27:17;;;;;;;17.25;5.25;;;20.60;62.60;;;;;;5022269;28;20037;-76
2021/12/31 04:29:50;;;;;;;21.63;11.55;;;20.60;62.60;;;;;;5031064;28;20040;-76
2021/12/31 04:32:18;;;;;;;19.55;11.90;;;20.70;62.70;;;;;;5034048;28;20053;-75
2021/12/31 04:34:46;;;;;;;13.70;7.47;;;20.60;62.80;;;;;;5026358;28;20027;-71
2021/12/31 04:37:13;;;;;;;15.32;4.60;;;20.70;62.80;;;;;;5033101;28;20391;-73
2021/12/31 04:39:41;;;;;;;12.13;3.80;;;20.70;62.90;;;;;;5036864;28;20033;-72
2021/12/31 04:42:10;;;;;;;11.95;4.03;;;20.70;62.90;;;;;;5022471;28;20053;-77
2021/12/31 04:44:36;;;;;;;6.85;3.08;;;20.70;63.00;;;;;;5029962;28;20022;-75
2021/12/31 04:47:03;;;;;;;18.48;3.55;;;20.70;63.20;;;;;;5020162;28;20086;-75
2021/12/31 04:49:30;;;;;;;16.27;3.33;;;20.70;63.20;;;;;;5021161;28;20037;-82
2021/12/31 04:51:56;;;;;;;14.18;3.42;;;20.70;63.60;;;;;;5019206;28;20080;-72
2021/12/31 04:54:23;;;;;;;14.07;3.33;;;20.70;63.60;;;;;;5023905;28;20037;-80
2021/12/31 04:56:53;;;;;;;10.32;3.47;;;20.70;63.60;;;;;;5025484;28;20029;-75
2021/12/31 04:59:20;;;;;;;17.90;3.33;;;20.70;63.40;;;;;;5024741;28;20013;-75
2021/12/31 05:01:48;;;;;;;24.15;4.68;;;20.80;63.30;;;;;;5024535;28;20092;-76
2021/12/31 05:04:15;;;;;;;20.42;3.10;;;20.70;63.30;;;;;;5026202;28;20053;-80
2021/12/31 05:06:42;;;;;;;12.82;2.88;;;20.80;63.30;;;;;;5023855;28;20029;-79
2021/12/31 05:09:10;;;;;;;10.35;2.10;;;20.70;63.20;;;;;;5021133;28;20029;-78
2021/12/31 05:11:37;;;;;;;13.52;3.45;;;20.80;63.20;;;;;;5033275;28;20017;-76
2021/12/31 05:14:04;;;;;;;13.38;2.53;;;20.80;63.10;;;;;;5021511;28;20100;-70
2021/12/31 05:16:31;;;;;;;14.38;2.28;;;20.80;63.00;;;;;;5025510;28;20064;-69
2021/12/31 05:18:59;;;;;;;18.08;3.17;;;20.80;63.00;;;;;;5034944;28;20494;-70
2021/12/31 05:21:25;;;;;;;17.77;2.83;;;20.80;63.00;;;;;;5031431;28;20057;-76
2021/12/31 05:23:52;;;;;;;19.77;3.78;;;20.80;63.00;;;;;;5018831;28;20112;-71
2021/12/31 05:26:18;;;;;;;12.50;4.45;;;20.80;62.90;;;;;;5021474;28;20093;-79
2021/12/31 05:28:45;;;;;;;4.95;1.70;;;20.80;62.70;;;;;;5017956;28;20054;-65
2021/12/31 05:31:12;;;;;;;11.10;2.20;;;20.90;62.60;;;;;;5015706;28;20313;-66
2021/12/31 05:33:38;;;;;;;33.67;4.50;;;20.90;62.60;;;;;;5024735;28;20033;-66
2021/12/31 05:36:05;;;;;;;41.58;5.85;;;20.90;62.60;;;;;;5015393;28;20057;-63
2021/12/31 05:38:32;;;;;;;50.80;6.47;;;20.90;62.60;;;;;;5019125;28;20018;-70
2021/12/31 05:40:58;;;;;;;51.20;6.35;;;21.00;62.80;;;;;;5018657;28;20037;-71
2021/12/31 05:43:25;;;;;;;24.75;4.03;;;21.00;63.00;;;;;;5017719;28;20385;-73
2021/12/31 05:45:51;;;;;;;19.58;3.05;;;21.00;63.00;;;;;;5018826;28;20538;-75
2021/12/31 05:48:18;;;;;;;20.38;2.88;;;21.10;63.10;;;;;;5019679;28;20029;-65
2021/12/31 05:50:44;;;;;;;10.85;2.72;;;21.10;63.10;;;;;;5017594;28;20385;-67
2021/12/31 05:53:11;;;;;;;14.68;2.60;;;21.10;63.00;;;;;;5017575;28;20112;-73
2021/12/31 05:55:37;;;;;;;12.23;2.63;;;21.10;63.10;;;;;;5025007;28;20033;-68
2021/12/31 05:58:05;;;;;;;11.45;2.55;;;21.20;63.20;;;;;;5018869;28;20675;-69
2021/12/31 06:20:54;;;;;;;21.95;4.38;;;21.50;61.20;;;;;;5542825;23;20047;-68
2021/12/31 06:23:20;;;;;;;16.27;2.55;;;21.60;60.50;;;;;;4942028;28;20055;-76
2021/12/31 06:26:27;;;;;;;43.53;4.88;;;21.60;58.80;;;;;;4951410;28;20027;-70
2021/12/31 06:28:53;;;;;;;58.95;9.13;;;21.60;60.00;;;;;;4947860;28;20028;-70
2021/12/31 06:31:20;;;;;;;51.00;8.38;;;21.60;61.80;;;;;;4949590;28;20037;-71
2021/12/31 06:33:49;;;;;;;26.15;9.65;;;21.50;61.80;;;;;;4946093;28;20098;-72
2021/12/31 06:36:16;;;;;;;13.52;4.20;;;21.60;62.00;;;;;;4947139;28;20023;-69
2021/12/31 06:38:43;;;;;;;24.70;5.20;;;21.60;62.10;;;;;;4951281;28;20114;-75
2021/12/31 06:41:10;;;;;;;9.95;3.22;;;21.60;62.10;;;;;;4952424;28;20054;-72
2021/12/31 06:43:37;;;;;;;12.18;2.25;;;21.60;62.00;;;;;;4950316;28;20037;-72
2021/12/31 06:46:03;;;;;;;9.07;2.30;;;21.60;62.80;;;;;;4945313;28;20022;-71
2021/12/31 06:48:29;;;;;;;6.63;2.28;;;21.70;62.00;;;;;;4951321;28;20162;-73
2021/12/31 06:50:56;;;;;;;18.70;3.53;;;21.60;61.90;;;;;;4949240;28;20090;-74
2021/12/31 06:53:22;;;;;;;25.30;5.10;;;21.60;61.50;;;;;;4951608;28;20027;-77
2021/12/31 06:55:49;;;;;;;12.65;2.45;;;21.60;61.30;;;;;;4952751;28;20453;-72
2021/12/31 06:58:15;;;;;;;20.17;4.40;;;21.60;61.00;;;;;;4947091;28;20054;-72
2021/12/31 07:00:42;;;;;;;14.70;2.70;;;21.60;62.90;;;;;;4948524;28;20391;-75
2021/12/31 07:03:12;;;;;;;13.00;3.05;;;21.60;63.40;;;;;;4947562;28;20043;-71
2021/12/31 07:05:43;;;;;;;11.60;2.60;;;21.70;64.40;;;;;;4942542;28;20031;-70
2021/12/31 07:08:11;;;;;;;8.57;2.03;;;21.70;62.80;;;;;;4944881;28;20023;-72
2021/12/31 07:10:37;;;;;;;11.57;2.58;;;21.80;62.60;;;;;;4947392;28;20046;-72
2021/12/31 07:13:10;;;;;;;32.75;6.90;;;21.90;62.00;;;;;;4949846;28;20393;-72
2021/12/31 07:15:48;;;;;;;26.05;8.45;;;21.90;61.90;;;;;;4949473;28;20470;-74
2021/12/31 07:18:15;;;;;;;36.38;7.53;;;21.90;61.80;;;;;;4949127;28;20030;-75
2021/12/31 07:20:42;;;;;;;27.38;4.95;;;22.00;62.20;;;;;;4948475;28;20434;-75
2021/12/31 07:23:14;;;;;;;14.30;2.97;;;22.10;62.40;;;;;;4959956;28;20054;-71
2021/12/31 07:25:41;;;;;;;19.15;3.00;;;22.20;62.40;;;;;;4960553;28;20074;-72
2021/12/31 07:28:09;;;;;;;7.55;2.85;;;22.30;62.30;;;;;;4960568;28;20461;-73
2021/12/31 07:30:36;;;;;;;13.05;3.47;;;22.40;62.00;;;;;;4966148;28;20061;-75
2021/12/31 07:33:03;;;;;;;10.73;2.25;;;22.40;61.80;;;;;;4962742;28;20532;-71
2021/12/31 07:35:31;;;;;;;194.48;26.73;;;22.40;61.70;;;;;;4961480;28;20620;-74
2021/12/31 07:37:58;;;;;;;512.35;70.07;;;22.50;61.70;;;;;;4967373;28;20419;-74
2021/12/31 07:40:39;;;;;;;417.13;52.45;;;22.60;61.40;;;;;;4964009;28;20034;-71
2021/12/31 07:43:07;;;;;;;147.45;20.75;;;22.60;61.10;;;;;;4947194;28;20038;-73
2021/12/31 07:45:33;;;;;;;18.20;3.33;;;22.60;60.80;;;;;;4966262;28;20646;-74
2021/12/31 07:48:01;;;;;;;12.05;2.53;;;22.70;60.10;;;;;;4964920;28;20026;-72
2021/12/31 07:50:28;;;;;;;8.25;2.55;;;22.80;61.10;;;;;;4961793;28;20027;-73
2021/12/31 07:52:55;;;;;;;12.10;2.55;;;22.80;61.80;;;;;;4968844;28;20031;-72
2021/12/31 07:55:22;;;;;;;8.95;2.08;;;22.80;61.30;;;;;;4966451;28;20015;-73
2021/12/31 07:57:48;;;;;;;9.52;2.42;;;22.80;60.80;;;;;;4966543;28;20066;-72
2021/12/31 08:00:15;;;;;;;21.35;4.28;;;22.90;60.80;;;;;;4965491;28;20025;-72
2021/12/31 08:02:42;;;;;;;26.33;3.45;;;22.90;60.80;;;;;;4967043;28;20390;-72
2021/12/31 08:05:09;;;;;;;15.13;3.70;;;22.90;60.60;;;;;;4965253;28;20037;-74
2021/12/31 08:07:35;;;;;;;37.03;5.25;;;23.00;60.60;;;;;;4965578;28;20546;-76
2021/12/31 08:10:03;;;;;;;34.88;4.60;;;23.00;61.00;;;;;;4969303;28;20462;-71
2021/12/31 08:12:30;;;;;;;10.95;4.05;;;23.00;61.00;;;;;;4963884;28;20037;-75
2021/12/31 08:14:57;;;;;;;14.95;4.68;;;23.10;60.80;;;;;;4965459;28;20117;-74
2021/12/31 08:17:23;;;;;;;18.38;4.15;;;23.10;60.60;;;;;;4965449;28;20027;-74
2021/12/31 08:19:49;;;;;;;7.00;2.80;;;23.20;60.40;;;;;;4962679;28;20879;-74
2021/12/31 08:22:16;;;;;;;9.18;2.70;;;23.20;60.90;;;;;;4965417;28;20503;-76
2021/12/31 08:24:42;;;;;;;8.50;2.28;;;23.30;59.90;;;;;;4966361;28;20023;-74
2021/12/31 08:27:09;;;;;;;13.88;4.55;;;23.30;59.70;;;;;;4966072;28;20053;-73
2021/12/31 08:29:35;;;;;;;11.50;3.65;;;23.40;60.00;;;;;;4963825;28;20022;-76
2021/12/31 08:32:02;;;;;;;10.32;3.78;;;23.40;60.20;;;;;;4967756;28;20019;-72
2021/12/31 08:34:29;;;;;;;10.60;3.30;;;23.40;60.30;;;;;;4966573;28;20053;-77
2021/12/31 08:36:55;;;;;;;11.13;3.78;;;23.50;60.30;;;;;;4965367;28;20120;-76
2021/12/31 08:39:21;;;;;;;8.30;2.50;;;23.60;59.70;;;;;;4968892;28;20421;-76
2021/12/31 08:41:48;;;;;;;11.40;2.72;;;23.60;59.40;;;;;;4964200;28;20478;-72
2021/12/31 08:44:14;;;;;;;8.82;2.20;;;23.70;59.10;;;;;;4967454;28;20456;-75
2021/12/31 08:46:41;;;;;;;9.57;2.78;;;23.70;58.40;;;;;;4968997;28;20564;-75
2021/12/31 08:49:08;;;;;;;10.18;3.20;;;23.70;58.00;;;;;;4963442;28;20478;-75
2021/12/31 08:51:35;;;;;;;10.27;4.22;;;23.80;57.40;;;;;;4966482;28;20502;-72
2021/12/31 08:54:02;;;;;;;12.13;3.83;;;23.80;57.10;;;;;;4966891;28;20498;-76
2021/12/31 08:56:29;;;;;;;13.77;4.60;;;23.90;56.70;;;;;;4962957;28;20079;-76
2021/12/31 08:58:55;;;;;;;7.80;2.38;;;24.00;56.50;;;;;;4962176;28;20053;-77
2021/12/31 09:01:22;;;;;;;8.27;1.90;;;24.00;56.10;;;;;;4965412;28;20041;-74
2021/12/31 09:03:48;;;;;;;10.82;2.30;;;24.10;56.30;;;;;;4963222;28;20493;-76
2021/12/31 09:06:19;;;;;;;11.45;2.40;;;24.10;56.30;;;;;;4969344;28;20053;-73
2021/12/31 09:08:46;;;;;;;19.75;2.92;;;24.10;56.20;;;;;;4969740;28;20481;-76
2021/12/31 09:11:13;;;;;;;11.80;2.35;;;24.20;56.70;;;;;;4969612;28;20733;-75
2021/12/31 09:13:43;;;;;;;6.95;1.77;;;24.20;56.70;;;;;;4967403;28;20043;-75
2021/12/31 09:16:10;;;;;;;7.90;2.15;;;24.20;56.60;;;;;;4969277;28;20031;-72
2021/12/31 09:18:37;;;;;;;7.13;2.13;;;24.20;56.30;;;;;;4969527;28;20026;-75
2021/12/31 09:21:04;;;;;;;10.27;2.10;;;24.30;56.50;;;;;;4969463;28;20490;-74
2021/12/31 09:23:31;;;;;;;12.27;1.98;;;24.30;56.60;;;;;;4970614;28;20094;-75
2021/12/31 09:25:58;;;;;;;9.25;2.25;;;24.40;56.40;;;;;;4970745;28;20061;-76
2021/12/31 09:28:25;;;;;;;12.55;2.30;;;24.40;56.10;;;;;;4967963;28;20033;-76
2021/12/31 09:30:52;;;;;;;6.38;2.38;;;24.40;56.00;;;;;;4969278;28;20031;-77
2021/12/31 09:33:18;;;;;;;10.60;2.05;;;24.50;55.90;;;;;;4970349;28;20030;-75
2021/12/31 09:35:45;;;;;;;9.05;2.05;;;24.60;56.00;;;;;;4969322;28;20026;-75
2021/12/31 09:38:11;;;;;;;15.00;3.40;;;24.60;55.70;;;;;;4967653;28;20029;-75
2021/12/31 09:40:39;;;;;;;10.68;2.30;;;24.70;55.40;;;;;;4970862;28;20030;-77
2021/12/31 09:43:09;;;;;;;5.47;2.45;;;24.70;55.70;;;;;;4970192;28;20173;-76
2021/12/31 09:45:41;;;;;;;23.77;3.60;;;24.70;55.30;;;;;;4968846;28;20034;-77
2021/12/31 09:48:09;;;;;;;23.30;3.50;;;24.80;55.40;;;;;;4968315;28;20038;-74
2021/12/31 09:50:44;;;;;;;27.73;3.63;;;24.80;55.00;;;;;;4968825;28;20014;-76
2021/12/31 09:53:11;;;;;;;;;;;24.80;54.70;;;;;;4966168;28;20026;-74
2021/12/31 09:55:40;;;;;;;9.30;2.13;;;24.90;54.50;;;;;;4968173;28;19989;-76
2021/12/31 09:58:08;;;;;;;10.90;2.75;;;24.90;54.20;;;;;;4968546;28;20027;-75
2021/12/31 10:00:35;;;;;;;26.02;3.85;;;24.90;54.10;;;;;;4967768;28;20029;-74
2021/12/31 10:03:11;;;;;;;12.10;3.28;;;24.90;54.50;;;;;;4965511;28;20069;-76
2021/12/31 10:05:49;;;;;;;10.80;2.63;;;24.90;54.40;;;;;;4967091;28;20030;-75
2021/12/31 10:08:29;;;;;;;9.95;3.17;;;25.00;54.30;;;;;;4966159;28;20053;-77
2021/12/31 10:11:11;;;;;;;4.32;1.83;;;25.00;54.00;;;;;;4970390;28;20035;-74
2021/12/31 10:13:43;;;;;;;7.75;2.33;;;25.10;54.00;;;;;;4966721;28;20030;-74
2021/12/31 10:16:29;;;;;;;7.40;2.05;;;25.20;53.90;;;;;;4970678;28;20019;-75
2021/12/31 10:19:13;;;;;;;7.88;2.50;;;25.30;54.00;;;;;;4970570;28;20030;-77
2021/12/31 10:21:46;;;;;;;12.60;2.73;;;25.30;53.70;;;;;;4965794;28;20042;-75
2021/12/31 10:24:40;;;;;;;6.60;2.03;;;25.30;53.60;;;;;;4966229;28;20295;-76
2021/12/31 10:27:12;;;;;;;5.97;2.03;;;25.40;53.00;;;;;;4968800;28;20019;-75
2021/12/31 10:30:03;;;;;;;6.35;1.92;;;25.50;52.50;;;;;;4968904;28;20870;-76
2021/12/31 10:32:36;;;;;;;9.27;2.72;;;25.50;52.50;;;;;;4966622;28;20030;-75
2021/12/31 10:35:10;;;;;;;12.07;2.80;;;25.50;52.50;;;;;;4965917;28;20034;-76
2021/12/31 10:37:53;;;;;;;11.35;2.28;;;25.50;52.30;;;;;;4967415;28;20035;-75
2021/12/31 10:40:33;;;;;;;9.90;2.28;;;25.50;52.10;;;;;;4965242;28;20032;-76
2021/12/31 10:43:21;;;;;;;5.05;1.67;;;25.60;51.90;;;;;;4969989;28;20034;-75
2021/12/31 10:46:05;;;;;;;11.70;2.47;;;25.60;51.60;;;;;;4968009;28;20079;-73
2021/12/31 10:48:50;;;;;;;11.13;3.42;;;25.60;51.50;;;;;;4967502;28;20478;-77
2021/12/31 10:51:18;;;;;;;8.70;2.75;;;25.60;51.60;;;;;;4964917;28;20019;-74
2021/12/31 10:53:54;;;;;;;24.83;3.70;;;25.70;51.70;;;;;;4950771;28;20427;-76
2021/12/31 10:56:21;;;;;;;15.77;2.90;;;25.70;51.50;;;;;;4962634;28;20043;-75
2021/12/31 10:58:57;;;;;;;11.50;2.33;;;25.80;51.90;;;;;;4963188;28;20437;-75
2021/12/31 11:01:24;;;;;;;7.05;2.85;;;25.80;51.40;;;;;;4960787;28;20026;-76
2021/12/31 11:03:51;;;;;;;10.48;2.85;;;25.90;51.30;;;;;;4964628;28;20074;-75
2021/12/31 11:06:21;;;;;;;7.90;1.73;;;25.80;51.00;;;;;;4964002;28;20102;-75
2021/12/31 11:08:49;;;;;;;17.42;3.42;;;25.90;51.10;;;;;;4959336;28;20027;-75
2021/12/31 11:11:19;;;;;;;11.88;3.08;;;25.80;51.10;;;;;;4964903;28;20085;-75
2021/12/31 11:13:45;;;;;;;9.77;2.30;;;25.90;51.00;;;;;;4960541;28;20023;-75
2021/12/31 11:16:14;;;;;;;14.98;4.72;;;26.00;50.90;;;;;;4965053;28;20042;-74
2021/12/31 11:18:41;;;;;;;10.40;2.75;;;26.00;51.10;;;;;;4963898;28;20038;-75
2021/12/31 11:21:09;;;;;;;8.13;1.73;;;26.00;50.60;;;;;;4967615;28;20553;-75
2021/12/31 11:23:40;;;;;;;10.15;2.40;;;26.10;50.60;;;;;;4970175;28;20031;-73
2021/12/31 11:26:11;;;;;;;9.95;3.03;;;26.10;50.20;;;;;;4962965;28;20062;-75
2021/12/31 11:28:43;;;;;;;10.38;2.72;;;26.10;50.40;;;;;;4964281;28;20034;-74
2021/12/31 11:31:18;;;;;;;5.35;1.65;;;26.10;50.40;;;;;;4960533;28;20023;-73
2021/12/31 11:34:12;;;;;;;14.95;2.83;;;26.20;50.20;;;;;;4963517;28;20063;-73
2021/12/31 11:36:43;;;;;;;11.65;4.05;;;26.20;50.10;;;;;;4964848;28;20482;-74
2021/12/31 11:39:17;;;;;;;9.55;2.22;;;26.20;50.20;;;;;;4962300;28;20161;-73
2021/12/31 11:41:45;;;;;;;12.33;3.20;;;26.20;49.90;;;;;;4963679;28;20101;-72
2021/12/31 11:44:17;;;;;;;6.45;2.15;;;26.30;49.80;;;;;;4961727;28;20402;-73
2021/12/31 11:46:47;;;;;;;7.65;2.45;;;26.30;49.70;;;;;;4962098;28;20439;-74
2021/12/31 11:49:26;;;;;;;8.32;1.60;;;26.30;49.70;;;;;;4962914;28;20458;-73
2021/12/31 11:52:05;;;;;;;8.95;2.15;;;26.30;49.60;;;;;;4961733;28;20501;-74
2021/12/31 11:54:41;;;;;;;5.10;2.45;;;26.40;49.70;;;;;;4962675;28;20109;-71
2021/12/31 11:57:11;;;;;;;13.25;2.25;;;26.40;50.00;;;;;;4963038;28;20015;-72
2021/12/31 11:59:43;;;;;;;10.30;2.60;;;26.40;50.20;;;;;;4962763;28;20089;-72
2021/12/31 12:02:21;;;;;;;8.02;2.92;;;26.30;49.90;;;;;;4963276;28;20461;-74
2021/12/31 12:05:02;;;;;;;6.55;1.60;;;26.30;50.10;;;;;;4963595;28;20106;-74
2021/12/31 12:07:46;;;;;;;12.68;2.25;;;26.30;50.30;;;;;;4964203;28;20034;-75
2021/12/31 12:10:17;;;;;;;18.07;3.43;;;26.30;50.50;;;;;;4962011;28;20023;-72
2021/12/31 12:12:49;;;;;;;11.82;3.20;;;26.40;50.40;;;;;;4963626;28;20300;-72
2021/12/31 12:15:16;;;;;;;8.07;2.40;;;26.40;50.20;;;;;;4966081;28;20421;-71
2021/12/31 12:17:46;;;;;;;6.40;2.63;;;26.50;50.40;;;;;;4961616;28;20027;-71
2021/12/31 12:20:18;;;;;;;19.88;3.42;;;26.50;50.00;;;;;;4964811;28;20034;-76
2021/12/31 12:22:56;;;;;;;13.98;3.38;;;26.50;50.10;;;;;;4965836;28;20493;-73
2021/12/31 12:25:27;;;;;;;10.15;2.60;;;26.60;49.70;;;;;;4963657;28;20027;-72
2021/12/31 12:27:58;;;;;;;6.75;2.17;;;26.60;49.60;;;;;;4966521;28;20515;-78
2021/12/31 12:30:28;;;;;;;8.65;2.35;;;26.70;49.20;;;;;;4968073;28;20022;-75
2021/12/31 12:35:40;;;;;;;16.55;4.95;;;26.80;49.10;;;;;;4963291;28;20023;-76
2021/12/31 12:38:12;;;;;;;7.43;2.88;;;26.80;48.60;;;;;;4964513;28;20031;-75
2021/12/31 12:40:47;;;;;;;6.00;2.35;;;26.80;48.20;;;;;;4964474;28;20489;-75
2021/12/31 12:43:24;;;;;;;8.07;3.13;;;26.90;47.90;;;;;;4964343;28;20042;-74
2021/12/31 12:46:13;;;;;;;6.20;2.33;;;26.90;48.20;;;;;;4964400;28;20460;-72
2021/12/31 12:48:50;;;;;;;4.63;1.95;;;26.90;48.20;;;;;;4962803;28;20034;-77
2021/12/31 12:51:29;;;;;;;20.30;3.05;;;26.90;48.10;;;;;;4962009;28;20486;-72
2021/12/31 12:53:56;;;;;;;12.68;3.88;;;26.90;47.90;;;;;;4961705;28;20106;-76
2021/12/31 12:56:23;;;;;;;29.02;5.38;;;26.90;48.30;;;;;;4964242;28;20055;-73
2021/12/31 12:59:00;;;;;;;11.05;2.63;;;26.90;48.70;;;;;;4963160;28;20069;-76
2021/12/31 13:01:34;;;;;;;6.95;2.72;;;26.90;49.10;;;;;;4962299;28;20029;-75
2021/12/31 13:04:01;;;;;;;12.32;2.53;;;26.90;48.80;;;;;;4961840;28;20063;-76
2021/12/31 13:06:28;;;;;;;7.80;2.88;;;26.80;48.20;;;;;;4962403;28;20157;-74
2021/12/31 13:09:08;;;;;;;6.05;1.95;;;26.80;48.10;;;;;;4962338;28;20027;-79
2021/12/31 13:11:37;;;;;;;14.82;2.78;;;26.80;48.80;;;;;;4966372;28;20039;-76
2021/12/31 13:14:10;;;;;;;30.85;4.97;;;26.70;49.30;;;;;;4963575;28;20031;-73
2021/12/31 13:16:37;;;;;;;16.48;2.80;;;26.70;51.10;;;;;;4961642;28;20019;-77
2021/12/31 13:19:07;;;;;;;11.27;2.45;;;26.70;52.00;;;;;;4967731;28;20035;-74